createdAt,value
2019-03-28T00:00:39.077Z,76.42
2019-03-28T00:01:39.047Z,76.08
2019-03-28T00:02:39.392Z,76.61
2019-03-28T00:03:38.997Z,76.71
2019-03-28T00:04:38.976Z,76.52
2019-03-28T00:05:38.950Z,76.52
2019-03-28T00:06:38.925Z,76.52
2019-03-28T00:07:38.901Z,76.42
2019-03-28T00:08:38.880Z,76.61
2019-03-28T00:09:38.855Z,76.61
2019-03-28T00:10:38.829Z,76.71
2019-03-28T00:11:38.805Z,76.42
2019-03-28T00:12:38.778Z,76.71
2019-03-28T00:13:38.712Z,76.52
2019-03-28T00:14:38.732Z,76.94
2019-03-28T00:15:38.705Z,76.71
2019-03-28T00:16:38.683Z,76.84
2019-03-28T00:17:39.246Z,76.9
2019-03-28T00:18:38.631Z,76.9
2019-03-28T00:19:38.609Z,76.9
2019-03-28T00:20:38.583Z,76.84
2019-03-28T00:21:38.554Z,76.75
2019-03-28T00:22:38.531Z,76.75
2019-03-28T00:23:38.506Z,76.84
2019-03-28T00:24:38.479Z,77.03
2019-03-28T00:25:38.457Z,76.94
2019-03-28T00:26:38.433Z,76.71
2019-03-28T00:27:38.409Z,76.65
2019-03-28T00:28:39.268Z,76.84
2019-03-28T00:29:38.360Z,76.56
2019-03-28T00:30:38.336Z,76.46
2019-03-28T00:31:38.311Z,76.75
2019-03-28T00:32:38.300Z,76.46
2019-03-28T00:33:38.270Z,76.56
2019-03-28T00:34:38.240Z,76.75
2019-03-28T00:35:38.211Z,76.65
2019-03-28T00:36:38.188Z,76.37
2019-03-28T00:37:38.165Z,76.56
2019-03-28T00:38:38.146Z,76.52
2019-03-28T00:39:38.117Z,76.65
2019-03-28T00:40:38.090Z,76.56
2019-03-28T00:41:38.066Z,76.46
2019-03-28T00:42:38.043Z,76.65
2019-03-28T00:43:38.086Z,76.56
2019-03-28T00:44:37.990Z,76.18
2019-03-28T00:45:37.968Z,76.46
2019-03-28T00:46:37.943Z,76.65
2019-03-28T00:47:38.575Z,76.08
2019-03-28T00:48:37.895Z,76.42
2019-03-28T00:49:37.870Z,76.52
2019-03-28T00:50:37.843Z,76.52
2019-03-28T00:51:37.818Z,76.56
2019-03-28T00:52:37.796Z,76.46
2019-03-28T00:53:37.772Z,76.04
2019-03-28T00:54:37.752Z,75.99
2019-03-28T00:55:37.722Z,76.56
2019-03-28T00:56:48.991Z,76.46
2019-03-28T00:57:37.675Z,76.65
2019-03-28T00:58:37.652Z,76.71
2019-03-28T00:59:37.624Z,76.46
2019-03-28T01:00:37.601Z,76.65
2019-03-28T01:01:37.575Z,76.9
2019-03-28T01:02:37.558Z,76.9
2019-03-28T01:03:37.604Z,77
2019-03-28T01:04:37.503Z,76.71
2019-03-28T01:05:37.479Z,76.61
2019-03-28T01:06:37.461Z,76.81
2019-03-28T01:07:37.432Z,77.09
2019-03-28T01:08:37.864Z,77
2019-03-28T01:09:37.380Z,77
2019-03-28T01:10:37.354Z,77.37
2019-03-28T01:11:37.329Z,77.19
2019-03-28T01:12:37.307Z,77.09
2019-03-28T01:13:37.283Z,77.76
2019-03-28T01:14:37.261Z,77.37
2019-03-28T01:15:37.229Z,77.56
2019-03-28T01:16:37.209Z,77.37
2019-03-28T01:17:37.195Z,77.37
2019-03-28T01:18:37.159Z,77.76
2019-03-28T01:19:37.690Z,77.76
2019-03-28T01:20:37.112Z,77.56
2019-03-28T01:21:37.087Z,77.37
2019-03-28T01:22:37.063Z,77.56
2019-03-28T01:23:37.034Z,78.04
2019-03-28T01:24:37.017Z,77.85
2019-03-28T01:25:36.985Z,77.76
2019-03-28T01:26:36.964Z,77.66
2019-03-28T01:27:36.933Z,77.66
2019-03-28T01:28:36.918Z,77.85
2019-03-28T01:29:36.888Z,77.95
2019-03-28T01:30:36.863Z,77.76
2019-03-28T01:31:36.839Z,78.14
2019-03-28T01:32:36.813Z,78.23
2019-03-28T01:33:36.791Z,77.47
2019-03-28T01:34:36.764Z,78.23
2019-03-28T01:35:36.740Z,78.23
2019-03-28T01:36:36.714Z,78.04
2019-03-28T01:37:36.688Z,77.95
2019-03-28T01:38:36.663Z,77.76
2019-03-28T01:39:37.155Z,78.04
2019-03-28T01:40:36.626Z,78.04
2019-03-28T01:41:36.592Z,78.8
2019-03-28T01:42:36.565Z,78.9
2019-03-28T01:43:36.546Z,78.23
2019-03-28T01:44:36.518Z,78.52
2019-03-28T01:45:36.494Z,78.71
2019-03-28T01:46:36.466Z,78.42
2019-03-28T01:47:36.444Z,78.52
2019-03-28T01:48:36.416Z,77.85
2019-03-28T01:49:36.404Z,78.23
2019-03-28T01:50:36.371Z,78.33
2019-03-28T01:51:36.346Z,77.95
2019-03-28T01:52:36.324Z,78.33
2019-03-28T01:53:36.297Z,78.23
2019-03-28T01:54:36.268Z,78.27
2019-03-28T01:55:36.243Z,78.33
2019-03-28T01:56:36.367Z,78.14
2019-03-28T01:57:36.199Z,78.14
2019-03-28T01:58:36.169Z,78.14
2019-03-28T01:59:36.144Z,78.71
2019-03-28T02:00:36.123Z,78.23
2019-03-28T02:01:36.096Z,78.52
2019-03-28T02:02:36.089Z,78.52
2019-03-28T02:03:36.094Z,78.42
2019-03-28T02:04:36.024Z,78.61
2019-03-28T02:05:36.003Z,78.71
2019-03-28T02:06:36.424Z,78.8
2019-03-28T02:07:35.950Z,78.71
2019-03-28T02:08:35.921Z,78.71
2019-03-28T02:09:35.899Z,78.71
2019-03-28T02:10:35.873Z,78.8
2019-03-28T02:11:35.856Z,78.61
2019-03-28T02:12:35.822Z,78.71
2019-03-28T02:13:35.796Z,78.61
2019-03-28T02:14:35.770Z,79.19
2019-03-28T02:15:35.754Z,79.09
2019-03-28T02:16:35.491Z,78.8
2019-03-28T02:17:35.698Z,78.9
2019-03-28T02:18:35.672Z,79.09
2019-03-28T02:19:35.652Z,79.09
2019-03-28T02:20:36.163Z,79.09
2019-03-28T02:21:35.601Z,78.9
2019-03-28T02:22:35.572Z,79.19
2019-03-28T02:23:36.228Z,79.09
2019-03-28T02:24:35.526Z,79.19
2019-03-28T02:25:35.518Z,79.28
2019-03-28T02:26:35.484Z,78.99
2019-03-28T02:27:35.449Z,79.09
2019-03-28T02:28:35.424Z,79.09
2019-03-28T02:29:35.677Z,79.38
2019-03-28T02:30:35.376Z,79.47
2019-03-28T02:31:35.355Z,79.09
2019-03-28T02:32:36.283Z,79.28
2019-03-28T02:33:35.321Z,79.38
2019-03-28T02:34:35.277Z,79.66
2019-03-28T02:35:35.270Z,79.57
2019-03-28T02:36:35.237Z,79.66
2019-03-28T02:37:35.205Z,79.75
2019-03-28T02:38:35.196Z,79.66
2019-03-28T02:39:35.151Z,79.57
2019-03-28T02:40:35.130Z,79.47
2019-03-28T02:41:35.223Z,79.94
2019-03-28T02:42:35.098Z,80.04
2019-03-28T02:43:35.060Z,79.19
2019-03-28T02:44:35.036Z,79.28
2019-03-28T02:45:35.014Z,79.47
2019-03-28T02:46:34.980Z,79.47
2019-03-28T02:47:35.721Z,79.57
2019-03-28T02:48:34.932Z,79.66
2019-03-28T02:49:34.945Z,79.94
2019-03-28T02:50:34.876Z,80.13
2019-03-28T02:51:34.851Z,80.13
2019-03-28T02:52:34.827Z,79.75
2019-03-28T02:53:34.804Z,80.23
2019-03-28T02:54:34.792Z,79.94
2019-03-28T02:55:34.761Z,80.23
2019-03-28T02:56:34.735Z,80.04
2019-03-28T02:57:44.058Z,80.13
2019-03-28T02:58:34.679Z,80.23
2019-03-28T02:59:34.671Z,80.13
2019-03-28T03:00:34.637Z,80.13
2019-03-28T03:01:34.603Z,79.94
2019-03-28T03:02:34.991Z,79.94
2019-03-28T03:03:34.552Z,80.04
2019-03-28T03:04:34.530Z,79.94
2019-03-28T03:05:34.509Z,80.13
2019-03-28T03:06:34.484Z,79.94
2019-03-28T03:07:34.456Z,80.13
2019-03-28T03:08:34.442Z,79.94
2019-03-28T03:09:34.169Z,80.04
2019-03-28T03:10:34.384Z,79.85
2019-03-28T03:11:35.602Z,79.94
2019-03-28T03:12:34.334Z,80.33
2019-03-28T03:13:34.546Z,80.23
2019-03-28T03:14:34.294Z,80.33
2019-03-28T03:15:34.262Z,80.42
2019-03-28T03:16:34.234Z,80.42
2019-03-28T03:17:34.213Z,80.52
2019-03-28T03:18:34.188Z,80.61
2019-03-28T03:19:34.163Z,80.42
2019-03-28T03:20:34.133Z,80.23
2019-03-28T03:21:34.109Z,80.42
2019-03-28T03:22:34.086Z,81.37
2019-03-28T03:23:34.060Z,81.09
2019-03-28T03:24:34.039Z,80.99
2019-03-28T03:25:34.012Z,80.9
2019-03-28T03:26:33.985Z,81.09
2019-03-28T03:27:33.965Z,81.18
2019-03-28T03:28:34.032Z,81.09
2019-03-28T03:29:33.921Z,80.9
2019-03-28T03:30:34.642Z,81.28
2019-03-28T03:31:33.870Z,80.9
2019-03-28T03:32:33.873Z,81.37
2019-03-28T03:33:33.832Z,81.28
2019-03-28T03:34:35.518Z,81.09
2019-03-28T03:35:33.761Z,80.99
2019-03-28T03:36:33.729Z,80.99
2019-03-28T03:37:33.707Z,81.47
2019-03-28T03:38:33.682Z,81.37
2019-03-28T03:39:33.661Z,81.47
2019-03-28T03:40:33.631Z,81.56
2019-03-28T03:41:33.608Z,81.66
2019-03-28T03:42:33.581Z,81.28
2019-03-28T03:43:33.568Z,81.85
2019-03-28T03:44:33.534Z,81.95
2019-03-28T03:45:33.504Z,81.76
2019-03-28T03:46:33.481Z,81.66
2019-03-28T03:47:33.452Z,82.14
2019-03-28T03:48:33.428Z,82.14
2019-03-28T03:49:33.403Z,81.76
2019-03-28T03:50:33.407Z,81.56
2019-03-28T03:51:33.361Z,81.56
2019-03-28T03:52:33.329Z,81.18
2019-03-28T03:53:33.298Z,81.62
2019-03-28T03:54:33.282Z,81.62
2019-03-28T03:55:33.257Z,81.71
2019-03-28T03:56:33.243Z,81.66
2019-03-28T03:57:33.207Z,81.62
2019-03-28T03:58:33.180Z,81.81
2019-03-28T03:59:33.158Z,81.71
2019-03-28T04:00:33.123Z,82
2019-03-28T04:01:33.107Z,82
2019-03-28T04:02:33.085Z,82.14
2019-03-28T04:03:33.063Z,81.9
2019-03-28T04:04:33.025Z,82.28
2019-03-28T04:05:33.000Z,82.09
2019-03-28T04:06:32.976Z,82.09
2019-03-28T04:07:32.949Z,81.62
2019-03-28T04:08:32.942Z,82.09
2019-03-28T04:09:32.900Z,82.38
2019-03-28T04:10:32.643Z,82.28
2019-03-28T04:11:32.850Z,82.51
2019-03-28T04:12:32.826Z,82.28
2019-03-28T04:13:32.802Z,82.67
2019-03-28T04:14:32.774Z,82.28
2019-03-28T04:15:32.513Z,82.38
2019-03-28T04:16:32.722Z,82.57
2019-03-28T04:17:32.470Z,82.86
2019-03-28T04:18:32.687Z,82.86
2019-03-28T04:19:32.658Z,82.67
2019-03-28T04:20:32.628Z,82.7
2019-03-28T04:21:32.598Z,82.95
2019-03-28T04:22:32.572Z,83.14
2019-03-28T04:23:32.550Z,82.76
2019-03-28T04:24:32.523Z,82.95
2019-03-28T04:25:32.499Z,83.09
2019-03-28T04:26:32.492Z,83.09
2019-03-28T04:27:32.459Z,82.76
2019-03-28T04:28:34.925Z,82.86
2019-03-28T04:29:33.165Z,83.33
2019-03-28T04:30:32.376Z,83.18
2019-03-28T04:31:32.348Z,83.56
2019-03-28T04:32:32.328Z,83.33
2019-03-28T04:33:32.293Z,83.23
2019-03-28T04:34:32.275Z,83.47
2019-03-28T04:35:32.244Z,83.28
2019-03-28T04:36:32.239Z,83.81
2019-03-28T04:37:32.617Z,83.71
2019-03-28T04:38:32.172Z,83.56
2019-03-28T04:39:31.908Z,83.52
2019-03-28T04:40:32.121Z,83.47
2019-03-28T04:41:32.100Z,83.42
2019-03-28T04:42:32.070Z,83.85
2019-03-28T04:43:32.052Z,83.71
2019-03-28T04:44:32.019Z,83.81
2019-03-28T04:45:32.074Z,83.52
2019-03-28T04:46:31.995Z,83.71
2019-03-28T04:47:31.941Z,83.65
2019-03-28T04:48:31.921Z,84
2019-03-28T04:49:31.891Z,84
2019-03-28T04:50:31.866Z,84.09
2019-03-28T04:51:31.841Z,83.9
2019-03-28T04:52:34.393Z,84.19
2019-03-28T04:53:32.142Z,84.19
2019-03-28T04:54:31.919Z,84.19
2019-03-28T04:55:31.744Z,84.19
2019-03-28T04:56:31.717Z,84.19
2019-03-28T04:57:31.974Z,83.94
2019-03-28T04:58:43.701Z,84.09
2019-03-28T04:59:31.641Z,84
2019-03-28T05:00:31.617Z,84.33
2019-03-28T05:01:31.590Z,84.09
2019-03-28T05:02:31.620Z,84.28
2019-03-28T05:03:31.542Z,84.47
2019-03-28T05:04:31.514Z,84.28
2019-03-28T05:05:32.376Z,84.19
2019-03-28T05:06:31.463Z,84.42
2019-03-28T05:07:31.438Z,83.81
2019-03-28T05:08:31.413Z,83.9
2019-03-28T05:09:31.391Z,84.04
2019-03-28T05:10:33.071Z,84.23
2019-03-28T05:11:31.343Z,84.19
2019-03-28T05:12:31.313Z,84.38
2019-03-28T05:13:31.295Z,84.28
2019-03-28T05:14:31.264Z,84.38
2019-03-28T05:15:32.082Z,84.28
2019-03-28T05:16:31.213Z,84.19
2019-03-28T05:17:31.189Z,84.19
2019-03-28T05:18:31.171Z,84.47
2019-03-28T05:19:31.137Z,84.47
2019-03-28T05:20:31.111Z,84.95
2019-03-28T05:21:31.457Z,84.95
2019-03-28T05:22:31.075Z,85.08
2019-03-28T05:23:31.041Z,85.04
2019-03-28T05:24:31.018Z,85.18
2019-03-28T05:25:30.987Z,84.95
2019-03-28T05:26:30.959Z,84.76
2019-03-28T05:27:30.936Z,84.99
2019-03-28T05:28:30.907Z,84.66
2019-03-28T05:29:30.883Z,85.04
2019-03-28T05:30:30.861Z,84.85
2019-03-28T05:31:30.834Z,84.66
2019-03-28T05:32:30.807Z,84.85
2019-03-28T05:33:30.790Z,85.24
2019-03-28T05:34:30.763Z,85.42
2019-03-28T05:35:30.734Z,84.95
2019-03-28T05:36:31.447Z,85.04
2019-03-28T05:37:30.901Z,85.24
2019-03-28T05:38:31.308Z,85.8
2019-03-28T05:39:30.633Z,85.71
2019-03-28T05:40:30.608Z,85.8
2019-03-28T05:41:30.583Z,85.52
2019-03-28T05:42:30.559Z,85.71
2019-03-28T05:43:30.533Z,85.8
2019-03-28T05:44:30.509Z,85.42
2019-03-28T05:45:30.483Z,85.71
2019-03-28T05:46:30.457Z,85.71
2019-03-28T05:47:30.429Z,85.8
2019-03-28T05:48:30.403Z,85.99
2019-03-28T05:49:30.378Z,86.18
2019-03-28T05:50:30.415Z,86.09
2019-03-28T05:51:30.330Z,86.28
2019-03-28T05:52:30.304Z,86.38
2019-03-28T05:53:30.279Z,85.99
2019-03-28T05:54:30.257Z,86.13
2019-03-28T05:55:30.230Z,86.09
2019-03-28T05:56:30.203Z,86.66
2019-03-28T05:57:30.178Z,86.66
2019-03-28T05:58:30.153Z,86.28
2019-03-28T05:59:30.130Z,86.66
2019-03-28T06:00:30.102Z,86.66
2019-03-28T06:01:30.077Z,86.47
2019-03-28T06:02:30.056Z,86.47
2019-03-28T06:03:30.027Z,87.32
2019-03-28T06:04:30.000Z,87.13
2019-03-28T06:05:29.977Z,86.76
2019-03-28T06:06:29.953Z,86.94
2019-03-28T06:07:29.935Z,86.94
2019-03-28T06:08:30.625Z,87.13
2019-03-28T06:09:29.873Z,86.94
2019-03-28T06:10:29.851Z,86.94
2019-03-28T06:11:30.942Z,86.76
2019-03-28T06:12:29.798Z,86.94
2019-03-28T06:13:29.777Z,86.94
2019-03-28T06:14:30.954Z,86.9
2019-03-28T06:15:29.725Z,86.61
2019-03-28T06:16:29.708Z,87.13
2019-03-28T06:17:30.324Z,86.9
2019-03-28T06:18:29.651Z,86.9
2019-03-28T06:19:29.627Z,87.18
2019-03-28T06:20:30.186Z,87.46
2019-03-28T06:21:29.575Z,86.42
2019-03-28T06:22:29.438Z,86.8
2019-03-28T06:23:29.533Z,86.61
2019-03-28T06:24:29.505Z,86.61
2019-03-28T06:25:29.486Z,86.7
2019-03-28T06:26:29.649Z,86.51
2019-03-28T06:27:29.193Z,86.22
2019-03-28T06:28:29.413Z,86.32
2019-03-28T06:29:29.379Z,86.42
2019-03-28T06:30:29.358Z,86.42
2019-03-28T06:31:29.329Z,86.13
2019-03-28T06:32:41.927Z,86.04
2019-03-28T06:33:29.280Z,86.13
2019-03-28T06:34:29.255Z,85.85
2019-03-28T06:35:29.231Z,85.56
2019-03-28T06:36:29.950Z,85.85
2019-03-28T06:37:29.172Z,85.94
2019-03-28T06:38:29.157Z,86.04
2019-03-28T06:39:29.141Z,86.22
2019-03-28T06:40:29.118Z,85.85
2019-03-28T06:41:29.087Z,85.75
2019-03-28T06:42:29.060Z,85.75
2019-03-28T06:43:29.038Z,85.94
2019-03-28T06:44:29.009Z,86.13
2019-03-28T06:45:28.988Z,86.13
2019-03-28T06:46:28.964Z,86.13
2019-03-28T06:47:28.949Z,86.04
2019-03-28T06:48:28.917Z,86.32
2019-03-28T06:49:28.890Z,86.13
2019-03-28T06:50:28.866Z,86.04
2019-03-28T06:51:28.841Z,86.04
2019-03-28T06:52:28.816Z,85.75
2019-03-28T06:53:28.801Z,85.66
2019-03-28T06:54:28.769Z,85.56
2019-03-28T06:55:28.762Z,86.04
2019-03-28T06:56:28.724Z,85.56
2019-03-28T06:57:28.695Z,86.04
2019-03-28T06:58:28.668Z,85.37
2019-03-28T06:59:39.184Z,85.75
2019-03-28T07:00:28.624Z,85.85
2019-03-28T07:01:28.598Z,85.75
2019-03-28T07:02:28.965Z,85.85
2019-03-28T07:03:28.725Z,85.66
2019-03-28T07:04:28.522Z,85.47
2019-03-28T07:05:28.500Z,85.75
2019-03-28T07:06:28.478Z,85.47
2019-03-28T07:07:28.452Z,85.8
2019-03-28T07:08:28.872Z,85.7
2019-03-28T07:09:29.018Z,85.89
2019-03-28T07:10:28.377Z,85.99
2019-03-28T07:11:29.197Z,85.89
2019-03-28T07:12:29.136Z,85.89
2019-03-28T07:13:28.902Z,85.22
2019-03-28T07:14:28.555Z,85.51
2019-03-28T07:15:29.301Z,85.51
2019-03-28T07:16:28.932Z,85.41
2019-03-28T07:17:28.955Z,85.32
2019-03-28T07:18:28.992Z,85.41
2019-03-28T07:19:29.013Z,85.13
2019-03-28T07:20:29.204Z,85.22
2019-03-28T07:21:29.314Z,85.32
2019-03-28T07:22:29.228Z,84.84
2019-03-28T07:23:28.675Z,84.84
2019-03-28T07:24:28.047Z,84.75
2019-03-28T07:25:28.214Z,85.13
2019-03-28T07:26:28.720Z,84.94
2019-03-28T07:27:27.970Z,84.65
2019-03-28T07:28:27.956Z,85.13
2019-03-28T07:29:28.088Z,85.13
2019-03-28T07:30:27.945Z,84.94
2019-03-28T07:31:29.007Z,84.27
2019-03-28T07:32:27.854Z,84.36
2019-03-28T07:33:27.830Z,84.08
2019-03-28T07:34:27.807Z,84.46
2019-03-28T07:35:27.785Z,84.08
2019-03-28T07:36:27.761Z,84.08
2019-03-28T07:37:30.575Z,84.46
2019-03-28T07:38:27.713Z,84.17
2019-03-28T07:39:27.790Z,84.08
2019-03-28T07:40:27.942Z,83.7
2019-03-28T07:41:27.645Z,84.17
2019-03-28T07:42:27.619Z,83.98
2019-03-28T07:43:27.842Z,84.27
2019-03-28T07:44:28.661Z,84.08
2019-03-28T07:45:27.748Z,84.17
2019-03-28T07:46:27.529Z,84.17
2019-03-28T07:47:27.505Z,83.89
2019-03-28T07:48:27.486Z,83.51
2019-03-28T07:49:27.481Z,83.89
2019-03-28T07:50:27.437Z,83.51
2019-03-28T07:51:27.673Z,83.65
2019-03-28T07:52:27.602Z,83.36
2019-03-28T07:53:27.476Z,83.36
2019-03-28T07:54:27.344Z,83.26
2019-03-28T07:55:27.324Z,82.79
2019-03-28T07:56:27.298Z,82.79
2019-03-28T07:57:27.274Z,82.41
2019-03-28T07:58:27.251Z,82.79
2019-03-28T07:59:27.231Z,82.03
2019-03-28T08:00:27.205Z,82.12
2019-03-28T08:01:28.039Z,81.74
2019-03-28T08:02:27.166Z,82.21
2019-03-28T08:03:27.534Z,82.41
2019-03-28T08:04:27.123Z,81.74
2019-03-28T08:05:27.100Z,82.03
2019-03-28T08:06:27.073Z,81.93
2019-03-28T08:07:27.054Z,82.03
2019-03-28T08:08:43.980Z,82.18
2019-03-28T08:09:38.798Z,82.46
2019-03-28T08:10:26.987Z,82.5
2019-03-28T08:11:27.086Z,82.41
2019-03-28T08:12:26.940Z,82.21
2019-03-28T08:13:26.922Z,81.84
2019-03-28T08:14:26.899Z,82.12
2019-03-28T08:15:26.876Z,81.74
2019-03-28T08:16:28.797Z,81.84
2019-03-28T08:17:26.833Z,81.46
2019-03-28T08:18:26.823Z,81.36
2019-03-28T08:19:26.784Z,81.74
2019-03-28T08:20:26.768Z,81.46
2019-03-28T08:21:26.772Z,81.26
2019-03-28T08:22:29.491Z,81.26
2019-03-28T08:23:26.699Z,81.46
2019-03-28T08:24:27.377Z,81.36
2019-03-28T08:25:27.692Z,81.65
2019-03-28T08:26:29.871Z,81.36
2019-03-28T08:27:26.616Z,81.46
2019-03-28T08:28:26.588Z,81.46
2019-03-28T08:29:26.566Z,81.55
2019-03-28T08:30:26.543Z,82.31
2019-03-28T08:31:26.519Z,82.03
2019-03-28T08:32:26.498Z,81.46
2019-03-28T08:33:26.708Z,81.74
2019-03-28T08:34:26.458Z,81.17
2019-03-28T08:35:26.432Z,81.36
2019-03-28T08:36:26.412Z,81.55
2019-03-28T08:37:26.387Z,81.17
2019-03-28T08:38:26.394Z,81.17
2019-03-28T08:39:26.346Z,81.55
2019-03-28T08:40:26.442Z,81.17
2019-03-28T08:41:26.299Z,81.26
2019-03-28T08:42:26.285Z,81.46
2019-03-28T08:43:26.268Z,81.36
2019-03-28T08:44:26.236Z,81.46
2019-03-28T08:45:26.211Z,81.36
2019-03-28T08:46:26.190Z,81.36
2019-03-28T08:47:26.171Z,81.36
2019-03-28T08:48:26.146Z,81.26
2019-03-28T08:49:26.123Z,81.26
2019-03-28T08:50:26.101Z,81.55
2019-03-28T08:51:29.584Z,81.17
2019-03-28T08:52:26.059Z,81.46
2019-03-28T08:53:26.043Z,81.55
2019-03-28T08:54:26.011Z,81.07
2019-03-28T08:55:25.998Z,80.98
2019-03-28T08:56:25.971Z,80.98
2019-03-28T08:57:25.951Z,81.07
2019-03-28T08:58:25.941Z,81.17
2019-03-28T08:59:25.908Z,81.26
2019-03-28T09:00:50.747Z,80.5
2019-03-28T09:01:25.863Z,80.41
2019-03-28T09:02:25.838Z,80.31
2019-03-28T09:03:25.820Z,80.07
2019-03-28T09:04:25.802Z,79.21
2019-03-28T09:05:25.773Z,79.68
2019-03-28T09:06:25.754Z,79.49
2019-03-28T09:07:25.731Z,78.92
2019-03-28T09:08:25.709Z,79.02
2019-03-28T09:09:25.697Z,78.92
2019-03-28T09:10:25.672Z,78.35
2019-03-28T09:11:25.648Z,78.44
2019-03-28T09:12:25.629Z,78.49
2019-03-28T09:13:25.618Z,77.91
2019-03-28T09:14:25.598Z,77.82
2019-03-28T09:15:25.572Z,77.82
2019-03-28T09:16:25.549Z,77.25
2019-03-28T09:17:26.330Z,76.81
2019-03-28T09:18:25.535Z,76.42
2019-03-28T09:19:25.498Z,75.76
2019-03-28T09:20:25.482Z,75.09
2019-03-28T09:21:25.452Z,74.71
2019-03-28T09:22:25.435Z,74.32
2019-03-28T09:23:25.417Z,74.32
2019-03-28T09:24:25.397Z,74.23
2019-03-28T09:25:25.380Z,74.23
2019-03-28T09:26:25.369Z,74.04
2019-03-28T09:27:25.435Z,74.32
2019-03-28T09:28:25.091Z,73.85
2019-03-28T09:29:25.993Z,73.18
2019-03-28T09:30:25.301Z,72.89
2019-03-28T09:31:25.268Z,72.89
2019-03-28T09:32:25.245Z,73.75
2019-03-28T09:33:25.233Z,73.47
2019-03-28T09:34:25.219Z,73.56
2019-03-28T09:35:25.195Z,73.08
2019-03-28T09:36:24.955Z,72.61
2019-03-28T09:37:25.156Z,72.61
2019-03-28T09:38:25.326Z,72.13
2019-03-28T09:39:27.292Z,71.84
2019-03-28T09:40:25.105Z,71.27
2019-03-28T09:41:25.087Z,71.08
2019-03-28T09:42:25.068Z,71.59
2019-03-28T09:43:25.049Z,71.59
2019-03-28T09:44:25.034Z,70.83
2019-03-28T09:45:25.945Z,70.64
2019-03-28T09:46:25.807Z,70.07
2019-03-28T09:47:24.986Z,69.62
2019-03-28T09:48:24.963Z,69.72
2019-03-28T09:49:24.953Z,69.34
2019-03-28T09:50:24.942Z,68.96
2019-03-28T09:51:24.920Z,68.57
2019-03-28T09:52:24.897Z,67.52
2019-03-28T09:53:24.889Z,67.14
2019-03-28T09:54:24.870Z,67.4
2019-03-28T09:55:24.835Z,67.3
2019-03-28T09:56:24.820Z,67.58
2019-03-28T09:57:24.818Z,67.68
2019-03-28T09:58:24.779Z,67.4
2019-03-28T09:59:24.766Z,67.21
2019-03-28T10:00:24.747Z,67.21
2019-03-28T10:01:24.823Z,67.58
2019-03-28T10:02:24.711Z,67.4
2019-03-28T10:03:24.690Z,67.11
2019-03-28T10:04:24.970Z,67.21
2019-03-28T10:05:24.656Z,66.72
2019-03-28T10:06:24.643Z,66.25
2019-03-28T10:07:24.650Z,65.87
2019-03-28T10:08:24.606Z,65.8
2019-03-28T10:09:24.673Z,64.85
2019-03-28T10:10:24.577Z,64.94
2019-03-28T10:11:24.557Z,64.65
2019-03-28T10:12:24.583Z,64.85
2019-03-28T10:13:24.516Z,64.09
2019-03-28T10:14:24.500Z,64.28
2019-03-28T10:15:24.485Z,64.09
2019-03-28T10:16:24.465Z,63.64
2019-03-28T10:17:24.442Z,63.26
2019-03-28T10:18:24.425Z,62.87
2019-03-28T10:19:24.410Z,62.21
2019-03-28T10:20:24.396Z,61.72
2019-03-28T10:21:24.375Z,61.63
2019-03-28T10:22:24.899Z,61.63
2019-03-28T10:23:24.341Z,61.54
2019-03-28T10:24:24.331Z,62.3
2019-03-28T10:25:24.308Z,62.46
2019-03-28T10:26:24.289Z,62.49
2019-03-28T10:27:24.272Z,62.11
2019-03-28T10:28:24.256Z,61.44
2019-03-28T10:29:24.258Z,61.92
2019-03-28T10:30:24.240Z,61.63
2019-03-28T10:31:24.203Z,61.63
2019-03-28T10:32:24.185Z,61.47
2019-03-28T10:33:24.657Z,61.47
2019-03-28T10:34:24.152Z,60.42
2019-03-28T10:35:24.216Z,60.61
2019-03-28T10:36:24.132Z,60.71
2019-03-28T10:37:24.106Z,60.33
2019-03-28T10:38:24.099Z,60.33
2019-03-28T10:39:24.092Z,60.49
2019-03-28T10:40:24.058Z,60.1
2019-03-28T10:41:25.812Z,59.91
2019-03-28T10:42:24.021Z,60.01
2019-03-28T10:43:24.009Z,60.01
2019-03-28T10:44:23.993Z,59.91
2019-03-28T10:45:24.197Z,59.81
2019-03-28T10:46:24.039Z,59.81
2019-03-28T10:47:23.938Z,60.01
2019-03-28T10:48:25.845Z,59.72
2019-03-28T10:49:23.908Z,59.94
2019-03-28T10:50:23.894Z,59.56
2019-03-28T10:51:24.510Z,59.08
2019-03-28T10:52:23.855Z,58.73
2019-03-28T10:53:23.838Z,58.63
2019-03-28T10:54:25.684Z,58.44
2019-03-28T10:55:24.202Z,57.58
2019-03-28T10:56:25.499Z,57.77
2019-03-28T10:57:32.621Z,57.42
2019-03-28T10:58:24.633Z,57.23
2019-03-28T10:59:26.266Z,56.94
2019-03-28T11:00:26.870Z,56.17
2019-03-28T11:01:49.870Z,56.46
2019-03-28T11:02:23.703Z,56.65
2019-03-28T11:03:23.686Z,55.88
2019-03-28T11:04:25.498Z,56.05
2019-03-28T11:05:23.658Z,56.05
2019-03-28T11:06:23.643Z,56.43
2019-03-28T11:07:24.606Z,56.34
2019-03-28T11:08:23.623Z,56.43
2019-03-28T11:09:23.600Z,57.01
2019-03-28T11:10:23.580Z,56.82
2019-03-28T11:11:23.573Z,56.91
2019-03-28T11:12:23.547Z,56.82
2019-03-28T11:13:23.537Z,57.2
2019-03-28T11:14:24.199Z,57.2
2019-03-28T11:15:23.502Z,56.62
2019-03-28T11:16:23.490Z,56.34
2019-03-28T11:17:24.216Z,56.43
2019-03-28T11:18:23.462Z,56.05
2019-03-28T11:19:23.456Z,55.02
2019-03-28T11:20:23.433Z,55.1
2019-03-28T11:21:23.431Z,55.67
2019-03-28T11:22:23.399Z,55.86
2019-03-28T11:23:23.428Z,55.76
2019-03-28T11:24:24.098Z,55.67
2019-03-28T11:25:23.360Z,55.02
2019-03-28T11:26:23.343Z,55.31
2019-03-28T11:27:23.619Z,55.51
2019-03-28T11:28:25.845Z,55.1
2019-03-28T11:29:23.316Z,55.12
2019-03-28T11:30:23.040Z,55.41
2019-03-28T11:31:23.264Z,54.55
2019-03-28T11:32:23.301Z,54.83
2019-03-28T11:33:23.237Z,54.64
2019-03-28T11:34:23.220Z,55.51
2019-03-28T11:35:23.260Z,55.02
2019-03-28T11:36:23.189Z,54.64
2019-03-28T11:37:28.850Z,55.31
2019-03-28T11:38:23.193Z,55.29
2019-03-28T11:39:23.507Z,55.19
2019-03-28T11:40:24.584Z,55.76
2019-03-28T11:41:23.131Z,55.96
2019-03-28T11:42:23.126Z,56.24
2019-03-28T11:43:23.126Z,57.26
2019-03-28T11:44:23.075Z,56.98
2019-03-28T11:45:23.055Z,56.88
2019-03-28T11:46:23.035Z,56.88
2019-03-28T11:47:24.712Z,56.88
2019-03-28T11:48:23.004Z,57.07
2019-03-28T11:49:22.988Z,56.79
2019-03-28T11:50:22.984Z,57.17
2019-03-28T11:51:22.955Z,57.36
2019-03-28T11:52:23.046Z,57.26
2019-03-28T11:53:22.961Z,57.65
2019-03-28T11:54:22.905Z,57.84
2019-03-28T11:55:22.887Z,58.12
2019-03-28T11:56:22.875Z,58.76
2019-03-28T11:57:22.860Z,59.24
2019-03-28T11:58:22.840Z,59.34
2019-03-28T11:59:22.835Z,59.44
2019-03-28T12:00:22.802Z,59.63
2019-03-28T12:01:22.786Z,59.53
2019-03-28T12:02:25.279Z,59.44
2019-03-28T12:03:22.850Z,59.88
2019-03-28T12:04:22.731Z,59.88
2019-03-28T12:05:22.715Z,59.69
2019-03-28T12:06:22.696Z,59.88
2019-03-28T12:07:22.709Z,59.88
2019-03-28T12:08:22.722Z,60.17
2019-03-28T12:09:22.641Z,59.98
2019-03-28T12:10:22.629Z,59.98
2019-03-28T12:11:22.617Z,60.07
2019-03-28T12:12:22.585Z,60.07
2019-03-28T12:13:22.570Z,60.01
2019-03-28T12:14:22.552Z,60.07
2019-03-28T12:15:22.532Z,59.69
2019-03-28T12:16:22.520Z,59.72
2019-03-28T12:17:22.494Z,59.98
2019-03-28T12:18:25.043Z,59.69
2019-03-28T12:19:22.458Z,60.07
2019-03-28T12:20:22.392Z,59.98
2019-03-28T12:21:22.508Z,59.88
2019-03-28T12:22:22.408Z,59.98
2019-03-28T12:23:22.606Z,59.78
2019-03-28T12:24:22.367Z,60.07
2019-03-28T12:25:22.343Z,59.88
2019-03-28T12:26:22.327Z,59.81
2019-03-28T12:27:22.310Z,59.98
2019-03-28T12:28:22.292Z,59.44
2019-03-28T12:29:22.273Z,59.63
2019-03-28T12:30:22.258Z,59.72
2019-03-28T12:31:22.238Z,58.95
2019-03-28T12:32:22.227Z,59.34
2019-03-28T12:33:22.304Z,58.86
2019-03-28T12:34:22.178Z,58.76
2019-03-28T12:35:22.160Z,58.38
2019-03-28T12:36:22.141Z,58.38
2019-03-28T12:37:22.123Z,57.81
2019-03-28T12:38:22.103Z,57.62
2019-03-28T12:39:23.225Z,58
2019-03-28T12:40:22.424Z,57.81
2019-03-28T12:41:22.246Z,57.9
2019-03-28T12:42:22.189Z,58.1
2019-03-28T12:43:22.017Z,57.53
2019-03-28T12:44:21.994Z,57.9
2019-03-28T12:45:22.003Z,57.43
2019-03-28T12:46:21.955Z,57.33
2019-03-28T12:47:21.940Z,57.71
2019-03-28T12:48:21.924Z,57.62
2019-03-28T12:49:21.906Z,57.14
2019-03-28T12:50:21.884Z,57.33
2019-03-28T12:51:24.625Z,57.43
2019-03-28T12:52:21.849Z,57.24
2019-03-28T12:53:21.848Z,57.43
2019-03-28T12:54:21.811Z,57.33
2019-03-28T12:55:22.842Z,56.85